sensor_id;sensor_type;location;lat;lon;timestamp;pressure;altitude;pressure_sealevel;temperature;humidity
30339;BME280;795;49.296;11.348;2023-01-27T00:01:14;96418.78;;;-1.99;100.00
30339;BME280;795;49.296;11.348;2023-01-27T00:03:41;96421.97;;;-1.94;100.00
30339;BME280;795;49.296;11.348;2023-01-27T00:06:07;96464.06;;;-1.80;100.00
30339;BME280;795;49.296;11.348;2023-01-27T00:08:37;96392.81;;;-2.20;100.00
30339;BME280;795;49.296;11.348;2023-01-27T00:11:04;96463.03;;;-1.64;100.00
30339;BME280;795;49.296;11.348;2023-01-27T00:13:50;96372.06;;;-2.24;100.00
30339;BME280;795;49.296;11.348;2023-01-27T00:16:17;96488.31;;;-1.75;100.00
30339;BME280;795;49.296;11.348;2023-01-27T00:18:44;96487.75;;;-1.66;100.00
30339;BME280;795;49.296;11.348;2023-01-27T00:21:11;96411.16;;;-2.04;100.00
30339;BME280;795;49.296;11.348;2023-01-27T00:24:16;96408.44;;;-2.03;100.00
30339;BME280;795;49.296;11.348;2023-01-27T00:27:07;96464.25;;;-1.69;100.00
30339;BME280;795;49.296;11.348;2023-01-27T00:29:36;96479.31;;;-1.43;100.00
30339;BME280;795;49.296;11.348;2023-01-27T00:32:04;96475.72;;;-1.56;100.00
30339;BME280;795;49.296;11.348;2023-01-27T00:34:50;96447.72;;;-1.71;100.00
30339;BME280;795;49.296;11.348;2023-01-27T00:37:18;96441.81;;;-1.75;100.00
30339;BME280;795;49.296;11.348;2023-01-27T00:39:45;96351.59;;;-2.19;100.00
30339;BME280;795;49.296;11.348;2023-01-27T00:42:12;96473.66;;;-1.51;100.00
30339;BME280;795;49.296;11.348;2023-01-27T00:44:39;96434.94;;;-1.77;100.00
30339;BME280;795;49.296;11.348;2023-01-27T00:47:26;96460.13;;;-1.59;100.00
30339;BME280;795;49.296;11.348;2023-01-27T00:49:53;96397.81;;;-2.01;100.00
30339;BME280;795;49.296;11.348;2023-01-27T00:52:19;96464.34;;;-1.57;100.00
30339;BME280;795;49.296;11.348;2023-01-27T00:54:46;96420.72;;;-2.03;100.00
30339;BME280;795;49.296;11.348;2023-01-27T00:57:13;96355.16;;;-2.34;100.00
30339;BME280;795;49.296;11.348;2023-01-27T00:59:40;96432.78;;;-1.85;100.00
30339;BME280;795;49.296;11.348;2023-01-27T01:02:07;96229.25;;;-2.95;100.00
30339;BME280;795;49.296;11.348;2023-01-27T01:04:34;96414.09;;;-1.80;100.00
30339;BME280;795;49.296;11.348;2023-01-27T01:07:01;96437.41;;;-1.60;100.00
30339;BME280;795;49.296;11.348;2023-01-27T01:09:28;96409.66;;;-1.80;100.00
30339;BME280;795;49.296;11.348;2023-01-27T01:11:55;96436.25;;;-1.70;100.00
30339;BME280;795;49.296;11.348;2023-01-27T01:14:22;96424.72;;;-1.82;100.00
30339;BME280;795;49.296;11.348;2023-01-27T01:16:49;96328.59;;;-2.44;100.00
30339;BME280;795;49.296;11.348;2023-01-27T01:19:16;96419.25;;;-1.93;100.00
30339;BME280;795;49.296;11.348;2023-01-27T01:21:45;96454.13;;;-1.75;100.00
30339;BME280;795;49.296;11.348;2023-01-27T01:24:12;96442.75;;;-1.76;100.00
30339;BME280;795;49.296;11.348;2023-01-27T01:26:39;96474.31;;;-1.48;100.00
30339;BME280;795;49.296;11.348;2023-01-27T01:29:06;96324.47;;;-2.34;100.00
30339;BME280;795;49.296;11.348;2023-01-27T01:31:33;96456.91;;;-1.50;100.00
30339;BME280;795;49.296;11.348;2023-01-27T01:34:00;96478.34;;;-1.42;100.00
30339;BME280;795;49.296;11.348;2023-01-27T01:36:27;96403.38;;;-1.77;100.00
30339;BME280;795;49.296;11.348;2023-01-27T01:38:55;96433.72;;;-1.58;100.00
30339;BME280;795;49.296;11.348;2023-01-27T01:41:24;96487.19;;;-1.29;100.00
30339;BME280;795;49.296;11.348;2023-01-27T01:43:51;96451.88;;;-1.67;100.00
30339;BME280;795;49.296;11.348;2023-01-27T01:46:19;96424.59;;;-1.80;100.00
30339;BME280;795;49.296;11.348;2023-01-27T01:48:55;96478.19;;;-1.67;100.00
30339;BME280;795;49.296;11.348;2023-01-27T01:51:37;96439.66;;;-1.82;100.00
30339;BME280;795;49.296;11.348;2023-01-27T01:54:23;96405.44;;;-1.82;100.00
30339;BME280;795;49.296;11.348;2023-01-27T01:57:16;96422.09;;;-1.82;100.00
30339;BME280;795;49.296;11.348;2023-01-27T02:00:06;96443.19;;;-1.69;100.00
30339;BME280;795;49.296;11.348;2023-01-27T02:02:34;96478.25;;;-1.69;100.00
30339;BME280;795;49.296;11.348;2023-01-27T02:05:19;96449.25;;;-1.67;100.00
30339;BME280;795;49.296;11.348;2023-01-27T02:08:00;96474.53;;;-1.51;100.00
30339;BME280;795;49.296;11.348;2023-01-27T02:10:33;96472.81;;;-1.52;100.00
30339;BME280;795;49.296;11.348;2023-01-27T02:13:00;96444.34;;;-1.73;100.00
30339;BME280;795;49.296;11.348;2023-01-27T02:15:31;96447.81;;;-1.73;100.00
30339;BME280;795;49.296;11.348;2023-01-27T02:18:00;96474.25;;;-1.60;100.00
30339;BME280;795;49.296;11.348;2023-01-27T02:20:50;96488.72;;;-1.53;100.00
30339;BME280;795;49.296;11.348;2023-01-27T02:26:34;96484.19;;;-1.51;100.00
30339;BME280;795;49.296;11.348;2023-01-27T02:29:13;96466.69;;;-1.38;100.00
30339;BME280;795;49.296;11.348;2023-01-27T02:31:40;96438.22;;;-1.60;100.00
30339;BME280;795;49.296;11.348;2023-01-27T02:34:24;96441.69;;;-1.59;100.00
30339;BME280;795;49.296;11.348;2023-01-27T02:37:02;96320.91;;;-2.33;100.00
30339;BME280;795;49.296;11.348;2023-01-27T02:39:40;96481.72;;;-1.40;100.00
30339;BME280;795;49.296;11.348;2023-01-27T02:42:13;96416.81;;;-1.68;100.00
30339;BME280;795;49.296;11.348;2023-01-27T02:44:42;96430.03;;;-1.83;100.00
30339;BME280;795;49.296;11.348;2023-01-27T02:47:09;96482.13;;;-1.46;100.00
30339;BME280;795;49.296;11.348;2023-01-27T02:49:35;96392.66;;;-1.88;100.00
30339;BME280;795;49.296;11.348;2023-01-27T02:52:03;96427.22;;;-1.66;100.00
30339;BME280;795;49.296;11.348;2023-01-27T02:54:30;96461.44;;;-1.52;100.00
30339;BME280;795;49.296;11.348;2023-01-27T02:56:57;96496.03;;;-1.44;100.00
30339;BME280;795;49.296;11.348;2023-01-27T02:59:24;96459.56;;;-1.64;100.00
30339;BME280;795;49.296;11.348;2023-01-27T03:01:51;96476.31;;;-1.65;100.00
30339;BME280;795;49.296;11.348;2023-01-27T03:04:18;96462.19;;;-1.50;100.00
30339;BME280;795;49.296;11.348;2023-01-27T03:06:45;96404.97;;;-1.89;100.00
30339;BME280;795;49.296;11.348;2023-01-27T03:09:12;96467.28;;;-1.61;100.00
30339;BME280;795;49.296;11.348;2023-01-27T03:11:39;96429.00;;;-1.81;100.00
30339;BME280;795;49.296;11.348;2023-01-27T03:14:25;96463.72;;;-1.60;100.00
30339;BME280;795;49.296;11.348;2023-01-27T03:17:10;96410.31;;;-2.05;100.00
30339;BME280;795;49.296;11.348;2023-01-27T03:19:56;96455.31;;;-1.81;100.00
30339;BME280;795;49.296;11.348;2023-01-27T03:22:23;96454.88;;;-1.73;100.00
30339;BME280;795;49.296;11.348;2023-01-27T03:24:50;96320.78;;;-2.59;100.00
30339;BME280;795;49.296;11.348;2023-01-27T03:27:17;96483.44;;;-1.67;100.00
30339;BME280;795;49.296;11.348;2023-01-27T03:29:44;96426.38;;;-1.81;100.00
30339;BME280;795;49.296;11.348;2023-01-27T03:32:30;96463.44;;;-1.56;100.00
30339;BME280;795;49.296;11.348;2023-01-27T03:34:57;96452.63;;;-1.65;100.00
30339;BME280;795;49.296;11.348;2023-01-27T03:37:27;96449.31;;;-1.69;100.00
30339;BME280;795;49.296;11.348;2023-01-27T03:40:15;96469.25;;;-1.65;100.00
30339;BME280;795;49.296;11.348;2023-01-27T03:43:01;96433.81;;;-1.87;100.00
30339;BME280;795;49.296;11.348;2023-01-27T03:45:50;96470.94;;;-1.50;100.00
30339;BME280;795;49.296;11.348;2023-01-27T03:48:36;96449.22;;;-1.53;100.00
30339;BME280;795;49.296;11.348;2023-01-27T03:51:07;96467.66;;;-1.67;100.00
30339;BME280;795;49.296;11.348;2023-01-27T03:53:36;96450.91;;;-1.52;100.00
30339;BME280;795;49.296;11.348;2023-01-27T03:56:04;96461.72;;;-1.43;100.00
30339;BME280;795;49.296;11.348;2023-01-27T03:58:35;96475.66;;;-1.41;100.00
30339;BME280;795;49.296;11.348;2023-01-27T04:01:20;96479.03;;;-1.39;100.00
30339;BME280;795;49.296;11.348;2023-01-27T04:03:49;96432.94;;;-1.60;100.00
30339;BME280;795;49.296;11.348;2023-01-27T04:06:40;96468.00;;;-1.45;100.00
30339;BME280;795;49.296;11.348;2023-01-27T04:09:35;96426.94;;;-1.76;100.00
30339;BME280;795;49.296;11.348;2023-01-27T04:12:05;96415.13;;;-1.83;100.00
30339;BME280;795;49.296;11.348;2023-01-27T04:14:39;96428.09;;;-1.66;100.00
30339;BME280;795;49.296;11.348;2023-01-27T04:17:18;96427.59;;;-1.58;100.00
30339;BME280;795;49.296;11.348;2023-01-27T04:19:46;96417.91;;;-1.72;100.00
30339;BME280;795;49.296;11.348;2023-01-27T04:22:15;96437.09;;;-1.56;100.00
30339;BME280;795;49.296;11.348;2023-01-27T04:24:42;96461.91;;;-1.46;100.00
30339;BME280;795;49.296;11.348;2023-01-27T04:27:13;96474.53;;;-1.51;100.00
30339;BME280;795;49.296;11.348;2023-01-27T04:29:42;96453.72;;;-1.69;100.00
30339;BME280;795;49.296;11.348;2023-01-27T04:32:11;96492.84;;;-1.49;100.00
30339;BME280;795;49.296;11.348;2023-01-27T04:34:40;96478.53;;;-1.45;100.00
30339;BME280;795;49.296;11.348;2023-01-27T04:37:09;96475.09;;;-1.46;100.00
30339;BME280;795;49.296;11.348;2023-01-27T04:39:36;96368.88;;;-2.29;100.00
30339;BME280;795;49.296;11.348;2023-01-27T04:42:03;96336.00;;;-2.50;100.00
30339;BME280;795;49.296;11.348;2023-01-27T04:44:30;96481.66;;;-1.53;100.00
30339;BME280;795;49.296;11.348;2023-01-27T04:46:57;96486.09;;;-1.53;100.00
30339;BME280;795;49.296;11.348;2023-01-27T04:49:24;96491.34;;;-1.53;100.00
30339;BME280;795;49.296;11.348;2023-01-27T04:51:55;96449.03;;;-1.78;100.00
30339;BME280;795;49.296;11.348;2023-01-27T04:54:21;96489.06;;;-1.59;100.00
30339;BME280;795;49.296;11.348;2023-01-27T04:57:00;96495.47;;;-1.49;100.00
30339;BME280;795;49.296;11.348;2023-01-27T04:59:29;96459.09;;;-1.57;100.00
30339;BME280;795;49.296;11.348;2023-01-27T05:01:56;96446.22;;;-1.61;100.00
30339;BME280;795;49.296;11.348;2023-01-27T05:04:23;96460.97;;;-1.59;100.00
30339;BME280;795;49.296;11.348;2023-01-27T05:06:53;96447.81;;;-1.59;100.00
30339;BME280;795;49.296;11.348;2023-01-27T05:09:20;96441.53;;;-1.84;100.00
30339;BME280;795;49.296;11.348;2023-01-27T05:11:47;96396.31;;;-2.05;100.00
30339;BME280;795;49.296;11.348;2023-01-27T05:14:14;96459.56;;;-1.78;100.00
30339;BME280;795;49.296;11.348;2023-01-27T05:16:41;96463.16;;;-1.79;100.00
30339;BME280;795;49.296;11.348;2023-01-27T05:19:08;96408.16;;;-2.12;100.00
30339;BME280;795;49.296;11.348;2023-01-27T05:21:35;96441.31;;;-1.81;100.00
30339;BME280;795;49.296;11.348;2023-01-27T05:24:02;96403.16;;;-2.17;100.00
30339;BME280;795;49.296;11.348;2023-01-27T05:26:29;96493.03;;;-1.52;100.00
30339;BME280;795;49.296;11.348;2023-01-27T05:28:58;96442.84;;;-1.91;100.00
30339;BME280;795;49.296;11.348;2023-01-27T05:31:29;96502.16;;;-1.58;100.00
30339;BME280;795;49.296;11.348;2023-01-27T05:34:00;96422.53;;;-2.04;100.00
30339;BME280;795;49.296;11.348;2023-01-27T05:36:29;96466.41;;;-1.76;100.00
30339;BME280;795;49.296;11.348;2023-01-27T05:38:58;96507.44;;;-1.58;100.00
30339;BME280;795;49.296;11.348;2023-01-27T05:41:28;96485.97;;;-1.66;100.00
30339;BME280;795;49.296;11.348;2023-01-27T05:43:57;96475.53;;;-1.81;100.00
30339;BME280;795;49.296;11.348;2023-01-27T05:46:28;96493.47;;;-1.74;100.00
30339;BME280;795;49.296;11.348;2023-01-27T05:49:01;96514.66;;;-1.61;100.00
30339;BME280;795;49.296;11.348;2023-01-27T05:51:35;96521.91;;;-1.65;100.00
30339;BME280;795;49.296;11.348;2023-01-27T05:54:03;96511.03;;;-1.74;100.00
30339;BME280;795;49.296;11.348;2023-01-27T05:56:31;96499.59;;;-1.87;100.00
30339;BME280;795;49.296;11.348;2023-01-27T05:58:59;96531.19;;;-1.73;100.00
30339;BME280;795;49.296;11.348;2023-01-27T06:01:33;96527.63;;;-1.72;100.00
30339;BME280;795;49.296;11.348;2023-01-27T06:04:01;96479.84;;;-1.94;100.00
30339;BME280;795;49.296;11.348;2023-01-27T06:06:31;96471.72;;;-2.06;100.00
30339;BME280;795;49.296;11.348;2023-01-27T06:08:59;96422.00;;;-2.38;100.00
30339;BME280;795;49.296;11.348;2023-01-27T06:11:26;96405.50;;;-2.40;100.00
30339;BME280;795;49.296;11.348;2023-01-27T06:13:53;96373.28;;;-2.74;100.00
30339;BME280;795;49.296;11.348;2023-01-27T06:16:22;96478.03;;;-2.08;100.00
30339;BME280;795;49.296;11.348;2023-01-27T06:18:50;96496.00;;;-1.86;100.00
30339;BME280;795;49.296;11.348;2023-01-27T06:21:17;96537.38;;;-1.74;100.00
30339;BME280;795;49.296;11.348;2023-01-27T06:23:46;96513.00;;;-1.92;100.00
30339;BME280;795;49.296;11.348;2023-01-27T06:26:17;96479.03;;;-2.11;100.00
30339;BME280;795;49.296;11.348;2023-01-27T06:28:44;96407.59;;;-2.47;100.00
30339;BME280;795;49.296;11.348;2023-01-27T06:31:20;96454.44;;;-2.24;100.00
30339;BME280;795;49.296;11.348;2023-01-27T06:33:50;96504.94;;;-1.89;100.00
30339;BME280;795;49.296;11.348;2023-01-27T06:36:20;96555.78;;;-1.74;100.00
30339;BME280;795;49.296;11.348;2023-01-27T06:38:49;96533.78;;;-1.87;100.00
30339;BME280;795;49.296;11.348;2023-01-27T06:41:17;96422.47;;;-2.46;100.00
30339;BME280;795;49.296;11.348;2023-01-27T06:43:45;96493.88;;;-2.24;100.00
30339;BME280;795;49.296;11.348;2023-01-27T06:46:12;96377.09;;;-2.93;100.00
30339;BME280;795;49.296;11.348;2023-01-27T06:48:39;96571.47;;;-1.87;100.00
30339;BME280;795;49.296;11.348;2023-01-27T06:51:06;96516.06;;;-2.14;100.00
30339;BME280;795;49.296;11.348;2023-01-27T06:53:33;96517.84;;;-2.14;100.00
30339;BME280;795;49.296;11.348;2023-01-27T06:56:03;96568.09;;;-1.89;100.00
30339;BME280;795;49.296;11.348;2023-01-27T06:58:30;96521.31;;;-2.14;100.00
30339;BME280;795;49.296;11.348;2023-01-27T07:00:58;96561.66;;;-1.99;100.00
30339;BME280;795;49.296;11.348;2023-01-27T07:03:25;96562.25;;;-1.94;100.00
30339;BME280;795;49.296;11.348;2023-01-27T07:05:52;96561.69;;;-1.85;100.00
30339;BME280;795;49.296;11.348;2023-01-27T07:08:19;96565.94;;;-1.82;100.00
30339;BME280;795;49.296;11.348;2023-01-27T07:10:46;96500.47;;;-2.17;100.00
30339;BME280;795;49.296;11.348;2023-01-27T07:13:14;96569.41;;;-1.82;100.00
30339;BME280;795;49.296;11.348;2023-01-27T07:15:41;96555.19;;;-1.93;100.00
30339;BME280;795;49.296;11.348;2023-01-27T07:18:11;96579.66;;;-1.77;100.00
30339;BME280;795;49.296;11.348;2023-01-27T07:20:40;96528.41;;;-2.00;100.00
30339;BME280;795;49.296;11.348;2023-01-27T07:23:09;96582.31;;;-1.77;100.00
30339;BME280;795;49.296;11.348;2023-01-27T07:25:37;96576.09;;;-1.76;100.00
30339;BME280;795;49.296;11.348;2023-01-27T07:28:05;96576.09;;;-1.76;100.00
30339;BME280;795;49.296;11.348;2023-01-27T07:30:33;96550.44;;;-1.87;100.00
30339;BME280;795;49.296;11.348;2023-01-27T07:33:07;96576.34;;;-1.81;100.00
30339;BME280;795;49.296;11.348;2023-01-27T07:35:36;96553.63;;;-1.82;100.00
30339;BME280;795;49.296;11.348;2023-01-27T07:38:05;96564.75;;;-1.63;100.00
30339;BME280;795;49.296;11.348;2023-01-27T07:40:34;96576.88;;;-1.60;100.00
30339;BME280;795;49.296;11.348;2023-01-27T07:43:02;96576.50;;;-1.54;100.00
30339;BME280;795;49.296;11.348;2023-01-27T07:45:30;96528.38;;;-1.70;100.00
30339;BME280;795;49.296;11.348;2023-01-27T07:48:07;96526.94;;;-1.76;100.00
30339;BME280;795;49.296;11.348;2023-01-27T07:50:38;96597.88;;;-1.30;100.00
30339;BME280;795;49.296;11.348;2023-01-27T07:53:05;96548.50;;;-1.55;100.00
30339;BME280;795;49.296;11.348;2023-01-27T07:55:33;96527.41;;;-1.69;100.00
30339;BME280;795;49.296;11.348;2023-01-27T07:58:00;96559.97;;;-1.56;100.00
30339;BME280;795;49.296;11.348;2023-01-27T08:00:28;96519.50;;;-1.83;100.00
30339;BME280;795;49.296;11.348;2023-01-27T08:02:59;96534.28;;;-1.67;100.00
30339;BME280;795;49.296;11.348;2023-01-27T08:05:31;96569.66;;;-1.43;100.00
30339;BME280;795;49.296;11.348;2023-01-27T08:07:58;96546.75;;;-1.41;100.00
30339;BME280;795;49.296;11.348;2023-01-27T08:10:30;96582.94;;;-1.16;100.00
30339;BME280;795;49.296;11.348;2023-01-27T08:12:57;96541.81;;;-1.47;100.00
30339;BME280;795;49.296;11.348;2023-01-27T08:15:24;96552.66;;;-1.37;100.00
30339;BME280;795;49.296;11.348;2023-01-27T08:17:56;96585.78;;;-1.19;100.00
30339;BME280;795;49.296;11.348;2023-01-27T08:20:26;96594.41;;;-1.17;100.00
30339;BME280;795;49.296;11.348;2023-01-27T08:22:54;96536.84;;;-1.51;100.00
30339;BME280;795;49.296;11.348;2023-01-27T08:25:22;96527.91;;;-1.49;100.00
30339;BME280;795;49.296;11.348;2023-01-27T08:27:52;96511.84;;;-1.44;100.00
30339;BME280;795;49.296;11.348;2023-01-27T08:30:21;96578.13;;;-0.95;100.00
30339;BME280;795;49.296;11.348;2023-01-27T08:32:48;96575.69;;;-0.98;100.00
30339;BME280;795;49.296;11.348;2023-01-27T08:35:16;96560.94;;;-1.29;100.00
30339;BME280;795;49.296;11.348;2023-01-27T08:37:45;96587.09;;;-1.12;100.00
30339;BME280;795;49.296;11.348;2023-01-27T08:40:15;96580.22;;;-1.00;100.00
30339;BME280;795;49.296;11.348;2023-01-27T08:42:42;96587.47;;;-0.90;100.00
30339;BME280;795;49.296;11.348;2023-01-27T08:45:09;96559.22;;;-0.88;100.00
30339;BME280;795;49.296;11.348;2023-01-27T08:47:36;96592.34;;;-0.84;100.00
30339;BME280;795;49.296;11.348;2023-01-27T08:50:04;96526.22;;;-1.21;100.00
30339;BME280;795;49.296;11.348;2023-01-27T08:52:30;96507.13;;;-1.53;100.00
30339;BME280;795;49.296;11.348;2023-01-27T08:54:57;96571.75;;;-1.05;100.00
30339;BME280;795;49.296;11.348;2023-01-27T08:57:24;96551.72;;;-1.22;100.00
30339;BME280;795;49.296;11.348;2023-01-27T08:59:52;96539.69;;;-1.26;100.00
30339;BME280;795;49.296;11.348;2023-01-27T09:03:48;96560.34;;;-1.06;100.00
30339;BME280;795;49.296;11.348;2023-01-27T09:06:16;96526.28;;;-1.09;100.00
30339;BME280;795;49.296;11.348;2023-01-27T09:08:44;96559.31;;;-1.03;100.00
30339;BME280;795;49.296;11.348;2023-01-27T09:11:31;96556.50;;;-1.00;100.00
30339;BME280;795;49.296;11.348;2023-01-27T09:13:58;96589.22;;;-0.76;100.00
30339;BME280;795;49.296;11.348;2023-01-27T09:16:24;96594.94;;;-0.70;100.00
30339;BME280;795;49.296;11.348;2023-01-27T09:18:52;96558.22;;;-0.73;100.00
30339;BME280;795;49.296;11.348;2023-01-27T09:21:20;96555.81;;;-0.76;100.00
30339;BME280;795;49.296;11.348;2023-01-27T09:23:50;96563.53;;;-0.46;100.00
30339;BME280;795;49.296;11.348;2023-01-27T09:26:18;96526.00;;;-0.49;100.00
30339;BME280;795;49.296;11.348;2023-01-27T09:28:44;96506.56;;;-0.48;100.00
30339;BME280;795;49.296;11.348;2023-01-27T09:31:11;96561.44;;;-0.14;100.00
30339;BME280;795;49.296;11.348;2023-01-27T09:33:38;96579.22;;;-0.04;100.00
30339;BME280;795;49.296;11.348;2023-01-27T09:36:11;96624.88;;;0.11;100.00
30339;BME280;795;49.296;11.348;2023-01-27T09:38:49;96544.19;;;-0.32;100.00
30339;BME280;795;49.296;11.348;2023-01-27T09:42:15;96606.06;;;0.03;100.00
30339;BME280;795;49.296;11.348;2023-01-27T09:45:37;96551.13;;;-0.05;100.00
30339;BME280;795;49.296;11.348;2023-01-27T09:55:57;96640.34;;;0.30;100.00
30339;BME280;795;49.296;11.348;2023-01-27T09:59:01;96632.63;;;0.27;100.00
30339;BME280;795;49.296;11.348;2023-01-27T10:12:13;96578.19;;;0.38;100.00
30339;BME280;795;49.296;11.348;2023-01-27T10:21:21;96556.81;;;0.41;100.00
30339;BME280;795;49.296;11.348;2023-01-27T10:24:31;96635.81;;;0.84;100.00
30339;BME280;795;49.296;11.348;2023-01-27T10:27:25;96640.63;;;0.52;100.00
30339;BME280;795;49.296;11.348;2023-01-27T10:32:50;96556.66;;;-0.22;100.00
30339;BME280;795;49.296;11.348;2023-01-27T10:35:52;96641.31;;;0.02;100.00
30339;BME280;795;49.296;11.348;2023-01-27T10:38:54;96587.28;;;-0.19;100.00
30339;BME280;795;49.296;11.348;2023-01-27T10:42:01;96642.69;;;0.08;100.00
30339;BME280;795;49.296;11.348;2023-01-27T10:48:15;96590.88;;;0.07;100.00
30339;BME280;795;49.296;11.348;2023-01-27T10:51:20;96583.31;;;-0.12;100.00
30339;BME280;795;49.296;11.348;2023-01-27T10:54:11;96619.69;;;0.36;100.00
30339;BME280;795;49.296;11.348;2023-01-27T10:57:06;96549.53;;;-0.07;100.00
30339;BME280;795;49.296;11.348;2023-01-27T11:03:04;96582.47;;;0.27;100.00
30339;BME280;795;49.296;11.348;2023-01-27T11:05:53;96598.44;;;0.38;100.00
30339;BME280;795;49.296;11.348;2023-01-27T11:08:31;96598.34;;;0.39;100.00
30339;BME280;795;49.296;11.348;2023-01-27T11:11:07;96621.66;;;0.85;100.00
30339;BME280;795;49.296;11.348;2023-01-27T11:14:22;96503.56;;;0.22;100.00
30339;BME280;795;49.296;11.348;2023-01-27T11:17:11;96636.56;;;1.11;100.00
30339;BME280;795;49.296;11.348;2023-01-27T11:20:03;96647.47;;;1.06;100.00
30339;BME280;795;49.296;11.348;2023-01-27T11:23:17;96643.84;;;0.82;100.00
30339;BME280;795;49.296;11.348;2023-01-27T11:26:43;96611.25;;;0.05;100.00
30339;BME280;795;49.296;11.348;2023-01-27T11:29:47;96522.66;;;-0.80;100.00
30339;BME280;795;49.296;11.348;2023-01-27T11:33:24;96585.34;;;-0.30;100.00
30339;BME280;795;49.296;11.348;2023-01-27T11:35:54;96575.69;;;-0.17;100.00
30339;BME280;795;49.296;11.348;2023-01-27T11:38:22;96433.66;;;-0.89;100.00
30339;BME280;795;49.296;11.348;2023-01-27T11:40:51;96593.81;;;0.02;100.00
30339;BME280;795;49.296;11.348;2023-01-27T11:43:28;96452.31;;;-0.92;100.00
30339;BME280;795;49.296;11.348;2023-01-27T11:46:16;96392.28;;;-1.27;100.00
30339;BME280;795;49.296;11.348;2023-01-27T11:48:53;96473.81;;;-0.71;100.00
30339;BME280;795;49.296;11.348;2023-01-27T11:51:24;96606.00;;;0.17;100.00
30339;BME280;795;49.296;11.348;2023-01-27T11:54:11;96520.91;;;-0.52;100.00
30339;BME280;795;49.296;11.348;2023-01-27T11:56:46;96606.91;;;0.04;100.00
30339;BME280;795;49.296;11.348;2023-01-27T11:59:22;96597.47;;;0.26;100.00
30339;BME280;795;49.296;11.348;2023-01-27T12:05:00;96458.78;;;-0.83;100.00
30339;BME280;795;49.296;11.348;2023-01-27T12:07:56;96511.84;;;-0.48;100.00
30339;BME280;795;49.296;11.348;2023-01-27T12:10:34;96591.47;;;0.24;100.00
30339;BME280;795;49.296;11.348;2023-01-27T12:13:20;96590.31;;;0.53;100.00
30339;BME280;795;49.296;11.348;2023-01-27T12:16:01;96587.69;;;0.41;100.00
30339;BME280;795;49.296;11.348;2023-01-27T12:18:46;96542.63;;;0.05;100.00
30339;BME280;795;49.296;11.348;2023-01-27T12:21:17;96335.94;;;-0.98;100.00
30339;BME280;795;49.296;11.348;2023-01-27T12:24:04;96578.69;;;0.31;100.00
30339;BME280;795;49.296;11.348;2023-01-27T12:26:43;96366.63;;;-0.85;100.00
30339;BME280;795;49.296;11.348;2023-01-27T12:29:21;96568.75;;;0.34;100.00
30339;BME280;795;49.296;11.348;2023-01-27T12:31:56;96553.97;;;0.19;100.00
30339;BME280;795;49.296;11.348;2023-01-27T12:34:35;96563.91;;;0.53;100.00
30339;BME280;795;49.296;11.348;2023-01-27T12:37:06;96446.84;;;-0.23;100.00
30339;BME280;795;49.296;11.348;2023-01-27T12:39:50;96383.03;;;-0.67;100.00
30339;BME280;795;49.296;11.348;2023-01-27T12:43:14;96568.25;;;0.42;100.00
30339;BME280;795;49.296;11.348;2023-01-27T12:45:43;96506.22;;;0.22;100.00
30339;BME280;795;49.296;11.348;2023-01-27T12:51:16;96570.69;;;0.45;100.00
30339;BME280;795;49.296;11.348;2023-01-27T12:53:47;96547.50;;;0.11;100.00
30339;BME280;795;49.296;11.348;2023-01-27T12:56:23;96571.84;;;0.41;100.00
30339;BME280;795;49.296;11.348;2023-01-27T13:01:32;96588.66;;;0.13;100.00
30339;BME280;795;49.296;11.348;2023-01-27T13:04:15;96477.59;;;-0.36;100.00
30339;BME280;795;49.296;11.348;2023-01-27T13:07:03;96440.09;;;-0.66;100.00
30339;BME280;795;49.296;11.348;2023-01-27T13:13:03;96539.44;;;-0.01;100.00
30339;BME280;795;49.296;11.348;2023-01-27T13:15:24;96572.72;;;0.15;100.00
30339;BME280;795;49.296;11.348;2023-01-27T13:17:59;96577.50;;;0.22;100.00
30339;BME280;795;49.296;11.348;2023-01-27T13:20:54;96493.13;;;-0.31;100.00
30339;BME280;795;49.296;11.348;2023-01-27T13:23:34;96486.38;;;-0.35;100.00
30339;BME280;795;49.296;11.348;2023-01-27T13:26:17;96572.91;;;0.38;100.00
30339;BME280;795;49.296;11.348;2023-01-27T13:28:56;96508.91;;;-0.17;100.00
30339;BME280;795;49.296;11.348;2023-01-27T13:31:50;96588.38;;;0.18;100.00
30339;BME280;795;49.296;11.348;2023-01-27T13:37:35;96589.63;;;0.12;100.00
30339;BME280;795;49.296;11.348;2023-01-27T13:40:32;96592.59;;;0.20;100.00
30339;BME280;795;49.296;11.348;2023-01-27T13:43:29;96602.53;;;0.17;100.00
30339;BME280;795;49.296;11.348;2023-01-27T13:46:20;96610.94;;;0.09;100.00
30339;BME280;795;49.296;11.348;2023-01-27T13:49:11;96517.34;;;-0.51;100.00
30339;BME280;795;49.296;11.348;2023-01-27T13:51:40;96592.00;;;-0.10;100.00
30339;BME280;795;49.296;11.348;2023-01-27T13:54:14;96606.00;;;-0.10;100.00
30339;BME280;795;49.296;11.348;2023-01-27T13:56:55;96605.75;;;-0.19;100.00
30339;BME280;795;49.296;11.348;2023-01-27T14:00:16;96605.00;;;-0.21;100.00
30339;BME280;795;49.296;11.348;2023-01-27T14:11:46;96619.69;;;-0.44;100.00
30339;BME280;795;49.296;11.348;2023-01-27T14:18:38;96608.53;;;-0.35;100.00
30339;BME280;795;49.296;11.348;2023-01-27T14:21:54;96594.91;;;-0.41;100.00
30339;BME280;795;49.296;11.348;2023-01-27T14:24:35;96621.03;;;-0.24;100.00
30339;BME280;795;49.296;11.348;2023-01-27T14:27:29;96474.38;;;-1.07;100.00
30339;BME280;795;49.296;11.348;2023-01-27T14:30:26;96615.19;;;-0.15;100.00
30339;BME280;795;49.296;11.348;2023-01-27T14:33:33;96576.16;;;-0.37;100.00
30339;BME280;795;49.296;11.348;2023-01-27T14:36:34;96549.28;;;-0.56;100.00
30339;BME280;795;49.296;11.348;2023-01-27T14:39:21;96612.63;;;-0.17;100.00
30339;BME280;795;49.296;11.348;2023-01-27T14:45:39;96621.69;;;-0.21;100.00
30339;BME280;795;49.296;11.348;2023-01-27T14:51:46;96618.50;;;-0.26;100.00
30339;BME280;795;49.296;11.348;2023-01-27T14:55:02;96635.06;;;-0.24;100.00
30339;BME280;795;49.296;11.348;2023-01-27T15:01:05;96621.81;;;-0.36;100.00
30339;BME280;795;49.296;11.348;2023-01-27T15:07:16;96561.81;;;-0.74;100.00